Terminal Aerodrome Forecast
Issued by NWS

Home | Current Version | Previous Version | Text Only | Print | Product List | Glossary On
Versions: 1 2 3 4 5 6 7 8 9 10 11 12 13 14 15 16 17 18 19 20 21 22 23 24 25 26
000
FTUS42 KGSP 252335
TAFHKY
TAF
KHKY 252335Z 2600/2624 19006KT P6SM BKN050
     FM260700 19005KT P6SM SCT017 OVC030
     FM261200 18005KT 4SM BR VCSH OVC008
     FM261500 19006KT P6SM VCSH OVC012
     FM261700 19006KT P6SM VCSH BKN040 PROB30 2618/2624 3SM TSRA
      BKN030CB=

USA.gov is the U.S. government's official web portal to all federal, state and local government web resources and services.